Nicole Leigh Reinauer — WCZ5696 — position and weather

sailwx.info

Track history (hours):
 
Tides and Currents Weather Stations Pressure Air Temp Water Temp Dewpoint Dewpoint Depression Visibility Wind Speed Wind Dir Waves Ship Positions

Nicole Leigh Reinauer

Owner: H A REINAUER INC, STATEN ISLAND, NY. More information available from US FCC via Universal Licensing System and Coast Guard Vessel Documentation Center.

Last reported at 2017-Mar-22 23:31 UTC. Time now 2017-Mar-23 00:17 UTC.
Position N 40°40' W 074°02'.

Length 167 m; draft 6.8 m.

Type: Pilot. MMSI: 366774330.

Date/timePositionNaut miles runAvg speedWind from/ knotsBaromVisibWave heightAir tempDewpointWater temp
2017-Mar-22 23:31N 40°40' W 074°02'0 0.0
2017-Mar-22 22:31N 40°40' W 074°02'0 0.0
2017-Mar-22 21:31N 40°40' W 074°02'2 2.2
2017-Mar-22 20:33N 40°38' W 074°03'3 2.6
2017-Mar-22 19:33N 40°35' W 074°01'0 0.0
2017-Mar-22 18:33N 40°35' W 074°01'0 0.0
2017-Mar-22 17:30N 40°35' W 074°01'0 0.0
2017-Mar-22 16:33N 40°35' W 074°01'0 0.0
2017-Mar-22 15:33N 40°35' W 074°01'0 0.0
2017-Mar-22 14:33N 40°35' W 074°01'0 0.0
2017-Mar-22 13:33N 40°35' W 074°01'0 0.0
2017-Mar-22 12:33N 40°35' W 074°01'0 0.0
2017-Mar-22 11:33N 40°35' W 074°01'0 0.0
2017-Mar-22 10:33N 40°35' W 074°01'0 0.0
2017-Mar-22 09:33N 40°35' W 074°01'0 0.0
2017-Mar-22 08:33N 40°35' W 074°01'0 0.2
2017-Mar-22 07:33N 40°36' W 074°01'0 0.0
2017-Mar-22 06:33N 40°36' W 074°01'0 0.2
2017-Mar-22 05:33N 40°35' W 074°01'0 0.1
2017-Mar-22 04:33N 40°35' W 074°01'0 0.0
2017-Mar-22 03:33N 40°35' W 074°01'0 0.0
2017-Mar-22 02:33N 40°35' W 074°01'0 0.0
2017-Mar-22 01:33N 40°35' W 074°01'0 0.0
2017-Mar-22 00:33N 40°35' W 074°01'0 0.0
2017-Mar-21 23:33N 40°35' W 074°01'0 0.0
2017-Mar-21 22:33N 40°35' W 074°01'0 0.0
2017-Mar-21 21:33N 40°35' W 074°01'0 0.1
2017-Mar-21 20:33N 40°36' W 074°01'0 0.1
2017-Mar-21 19:33N 40°36' W 074°01'0 0.1
2017-Mar-21 18:33N 40°36' W 074°01'0 0.0
2017-Mar-21 17:33N 40°35' W 074°01'0 0.1
2017-Mar-21 16:33N 40°35' W 074°01'0 0.0
2017-Mar-21 15:33N 40°35' W 074°01'0 0.0
2017-Mar-21 14:33N 40°35' W 074°01'0 0.0
2017-Mar-21 13:33N 40°35' W 074°01'0 0.0
2017-Mar-21 12:33N 40°35' W 074°01'0 0.0
2017-Mar-21 11:33N 40°35' W 074°01'0 0.0
2017-Mar-21 10:30N 40°35' W 074°01'0 0.0
2017-Mar-21 09:33N 40°35' W 074°01'0 0.1
2017-Mar-21 08:33N 40°35' W 074°01'0 0.1
2017-Mar-21 07:33N 40°36' W 074°01'0 0.0
2017-Mar-21 06:33N 40°36' W 074°01'0 0.1
2017-Mar-21 05:33N 40°35' W 074°01'0 0.1
2017-Mar-21 04:33N 40°35' W 074°01'0 0.0
2017-Mar-21 03:33N 40°35' W 074°01'0 0.0
2017-Mar-21 02:33N 40°35' W 074°01'0 0.0
2017-Mar-21 01:33N 40°35' W 074°01'0 0.0
2017-Mar-21 00:33N 40°35' W 074°01'0 0.0
2017-Mar-20 23:33N 40°35' W 074°01'0 0.0
2017-Mar-20 22:33N 40°35' W 074°01'0 0.0
2017-Mar-20 21:33N 40°35' W 074°01'0 0.0
2017-Mar-20 20:33N 40°35' W 074°01'0 0.0
2017-Mar-20 19:33N 40°35' W 074°01'0 0.0
2017-Mar-20 18:33N 40°35' W 074°01'0 0.0
2017-Mar-20 17:30N 40°35' W 074°01'0 0.0
2017-Mar-20 16:33N 40°35' W 074°01'0 0.0
2017-Mar-20 15:27N 40°35' W 074°01'0 0.0
2017-Mar-20 14:33N 40°35' W 074°01'0 0.0
2017-Mar-20 13:33N 40°35' W 074°01'1 0.6
2017-Mar-20 12:34N 40°36' W 074°02'5 4.4
2017-Mar-20 11:31N 40°40' W 074°02'0 0.0
2017-Mar-20 10:32N 40°40' W 074°02'0 0.0
2017-Mar-20 09:31N 40°40' W 074°02'0 0.1
2017-Mar-20 08:31N 40°40' W 074°02'0 0.1
2017-Mar-20 07:31N 40°40' W 074°02'0 0.1
2017-Mar-20 06:31N 40°40' W 074°02'0 0.0
2017-Mar-20 05:31N 40°40' W 074°02'0 0.1
2017-Mar-20 04:31N 40°40' W 074°02'0 0.1
2017-Mar-20 03:31N 40°40' W 074°02'0 0.1
2017-Mar-20 02:31N 40°40' W 074°02'0 0.0
2017-Mar-20 01:31N 40°40' W 074°02'0 0.0
2017-Mar-20 00:31N 40°40' W 074°02'0 0.0
2017-Mar-19 23:31N 40°40' W 074°02'0 0.0
2017-Mar-19 22:31N 40°40' W 074°02'0 0.0
2017-Mar-19 21:31N 40°40' W 074°02'0 0.1
2017-Mar-19 20:31N 40°40' W 074°02'0 0.0
2017-Mar-19 19:31N 40°40' W 074°02'0 0.2
2017-Mar-19 18:31N 40°40' W 074°02'0 0.1
2017-Mar-19 17:31N 40°40' W 074°02'0 0.0
2017-Mar-19 16:31N 40°40' W 074°02'0 0.1
2017-Mar-19 15:31N 40°40' W 074°02'0 0.0
2017-Mar-19 14:31N 40°40' W 074°02'0 0.0
2017-Mar-19 13:31N 40°40' W 074°02'0 0.0
2017-Mar-19 12:31N 40°40' W 074°02'0 0.0
2017-Mar-19 11:31N 40°40' W 074°02'0 0.0
2017-Mar-19 10:31N 40°40' W 074°02'0 0.0
2017-Mar-19 09:31N 40°40' W 074°02'0 0.0
2017-Mar-19 08:31N 40°40' W 074°02'0 0.0
2017-Mar-19 07:32N 40°40' W 074°02'0 0.2
2017-Mar-19 06:31N 40°40' W 074°02'0 0.0
2017-Mar-19 05:31N 40°40' W 074°02'0 0.1
2017-Mar-19 04:31N 40°40' W 074°02'0 0.1
2017-Mar-19 03:31N 40°40' W 074°02'0 0.1
2017-Mar-19 02:31N 40°40' W 074°02'0 0.0
2017-Mar-19 01:31N 40°40' W 074°02'0 0.0
2017-Mar-19 00:31N 40°40' W 074°02'0 0.0
2017-Mar-18 23:31N 40°40' W 074°02'0 0.0
2017-Mar-18 22:31N 40°40' W 074°02'0 0.0
2017-Mar-18 21:31N 40°40' W 074°02'0 0.0
2017-Mar-18 20:31N 40°40' W 074°02'0 0.0
2017-Mar-18 19:31N 40°40' W 074°02'0 0.1
2017-Mar-18 18:31N 40°40' W 074°02'0 0.2
2017-Mar-18 17:31N 40°40' W 074°02'0 0.0
2017-Mar-18 16:31N 40°40' W 074°02'0 0.1
2017-Mar-18 15:31N 40°40' W 074°02'0 0.1
2017-Mar-18 14:31N 40°40' W 074°02'0 0.1
2017-Mar-18 13:31N 40°40' W 074°02'0 0.1
2017-Mar-18 12:31N 40°40' W 074°02'0 0.0
2017-Mar-18 11:31N 40°40' W 074°02'0 0.0
2017-Mar-18 10:31N 40°40' W 074°02'0 0.0
2017-Mar-18 09:31N 40°40' W 074°02'0 0.0
2017-Mar-18 08:31N 40°40' W 074°02'0 0.2
2017-Mar-18 07:31N 40°40' W 074°02'0 0.1
2017-Mar-18 06:31N 40°40' W 074°02'0 0.0
2017-Mar-18 05:31N 40°40' W 074°02'0 0.0
2017-Mar-18 04:31N 40°40' W 074°02'0 0.0
2017-Mar-18 03:31N 40°40' W 074°02'0 0.0
2017-Mar-18 02:31N 40°40' W 074°02'0 0.1
2017-Mar-18 01:31N 40°40' W 074°02'0 0.2
2017-Mar-18 00:31N 40°40' W 074°02'0 0.0
2017-Mar-17 23:31N 40°40' W 074°02'0 0.0
2017-Mar-17 22:31N 40°40' W 074°02'0 0.0
2017-Mar-17 21:31N 40°40' W 074°02'0 0.0
2017-Mar-17 20:31N 40°40' W 074°02'0 0.1
2017-Mar-17 19:31N 40°40' W 074°02'0 0.2
2017-Mar-17 18:31N 40°40' W 074°02'0 0.0
2017-Mar-17 17:31N 40°40' W 074°02'0 0.1
2017-Mar-17 16:33N 40°40' W 074°02'0 0.0
2017-Mar-17 15:33N 40°40' W 074°02'4 4.0
2017-Mar-17 14:34N 40°39' W 074°07'1 0.9
2017-Mar-17 13:34N 40°38' W 074°08'0 0.0
2017-Mar-17 12:34N 40°38' W 074°08'5 4.6
2017-Mar-17 11:32N 40°40' W 074°02'0 0.0
2017-Mar-17 10:32N 40°40' W 074°02'0 0.0
2017-Mar-17 09:32N 40°40' W 074°02'0 0.0
2017-Mar-17 08:32N 40°40' W 074°02'0 0.0
2017-Mar-17 07:32N 40°40' W 074°02'0 0.1
2017-Mar-17 06:32N 40°40' W 074°02'0 0.1
2017-Mar-17 05:32N 40°40' W 074°02'0 0.1
2017-Mar-17 04:32N 40°40' W 074°02'0 0.0
2017-Mar-17 03:32N 40°40' W 074°02'0 0.0
2017-Mar-17 02:32N 40°40' W 074°02'0 0.1
2017-Mar-17 01:32N 40°40' W 074°02'0 0.1
2017-Mar-17 00:32N 40°40' W 074°02'0 0.0
2017-Mar-16 23:32N 40°40' W 074°02'0 0.0
2017-Mar-16 22:32N 40°40' W 074°02'0 0.0
2017-Mar-16 21:32N 40°40' W 074°02'0 0.0
2017-Mar-16 20:32N 40°40' W 074°02'0 0.0
2017-Mar-16 19:32N 40°40' W 074°02'0 0.0
2017-Mar-16 18:32N 40°40' W 074°02'0 0.1
2017-Mar-16 17:32N 40°40' W 074°02'0 0.0
2017-Mar-16 16:32N 40°40' W 074°02'0 0.1
2017-Mar-16 15:32N 40°40' W 074°02'0 0.0
2017-Mar-16 14:33N 40°40' W 074°02'0 0.0
2017-Mar-16 13:33N 40°40' W 074°02'0 0.2
2017-Mar-16 12:33N 40°40' W 074°02'4 4.3
2017-Mar-16 11:32N 40°36' W 074°01'0 0.0
2017-Mar-16 10:32N 40°36' W 074°01'0 0.0
2017-Mar-16 09:32N 40°36' W 074°01'0 0.0
2017-Mar-16 08:32N 40°36' W 074°01'0 0.0
2017-Mar-16 07:33N 40°36' W 074°01'0 0.0
2017-Mar-16 06:33N 40°36' W 074°01'0 0.0
2017-Mar-16 05:33N 40°36' W 074°01'0 0.0
2017-Mar-16 04:33N 40°36' W 074°01'0 0.0
2017-Mar-16 03:33N 40°36' W 074°01'0 0.0
2017-Mar-16 02:33N 40°36' W 074°01'0 0.0
2017-Mar-16 01:33N 40°36' W 074°01'0 0.0
2017-Mar-16 00:33N 40°36' W 074°01'0 0.1
2017-Mar-15 23:33N 40°36' W 074°01'0 0.0
2017-Mar-15 22:33N 40°36' W 074°01'0 0.0
2017-Mar-15 21:33N 40°36' W 074°01'0 0.0
2017-Mar-15 20:33N 40°36' W 074°01'0 0.0
2017-Mar-15 19:33N 40°36' W 074°01'6 5.6
2017-Mar-15 18:33N 40°41' W 074°01'1010.0
2017-Mar-15 17:33N 40°48' W 073°51'1010.1
2017-Mar-15 16:31N 40°55' W 073°40'3 0.1
2017-Mar-13 15:11N 40°53' W 073°43'6 9.9
2017-Mar-13 14:33N 40°48' W 073°49'9 9.1
2017-Mar-13 13:33N 40°43' W 073°58'1010.1
2017-Mar-13 12:33N 40°39' W 074°11'6 6.0
2017-Mar-13 11:32N 40°33' W 074°14'0 0.0
2017-Mar-13 10:32N 40°33' W 074°14'0 0.0
2017-Mar-13 06:26N 40°33' W 074°14'0 0.0
2017-Mar-13 05:32N 40°33' W 074°14'0 0.0
2017-Mar-13 04:32N 40°33' W 074°14'0 0.0
2017-Mar-13 03:32N 40°33' W 074°14'0 0.0
2017-Mar-13 02:26N 40°33' W 074°14'0 0.0
2017-Mar-13 01:32N 40°33' W 074°14'0 0.0
2017-Mar-13 00:26N 40°33' W 074°14'0 0.0
2017-Mar-12 23:32N 40°33' W 074°14'  
Track history (hours):
 
Tides and Currents Weather Stations Pressure Air Temp Water Temp Dewpoint Dewpoint Depression Visibility Wind Speed Wind Dir Waves Ship Positions

Nicole Leigh Reinauer

Owner: H A REINAUER INC, STATEN ISLAND, NY. More information available from US FCC via Universal Licensing System and Coast Guard Vessel Documentation Center.

Last reported at 2017-Mar-22 23:31 UTC. Time now 2017-Mar-23 00:17 UTC.
Position N 40°40' W 074°02'.

Length 167 m; draft 6.8 m.

Type: Pilot. MMSI: 366774330.

Date/timePositionNaut miles runAvg speedWind from/ knotsBaromVisibWave heightAir tempDewpointWater temp
2017-Mar-22 23:31N 40°40' W 074°02'0 0.0
2017-Mar-22 22:31N 40°40' W 074°02'0 0.0
2017-Mar-22 21:31N 40°40' W 074°02'2 2.2
2017-Mar-22 20:33N 40°38' W 074°03'3 2.6
2017-Mar-22 19:33N 40°35' W 074°01'0 0.0
2017-Mar-22 18:33N 40°35' W 074°01'0 0.0
2017-Mar-22 17:30N 40°35' W 074°01'0 0.0
2017-Mar-22 16:33N 40°35' W 074°01'0 0.0
2017-Mar-22 15:33N 40°35' W 074°01'0 0.0
2017-Mar-22 14:33N 40°35' W 074°01'0 0.0
2017-Mar-22 13:33N 40°35' W 074°01'0 0.0
2017-Mar-22 12:33N 40°35' W 074°01'0 0.0
2017-Mar-22 11:33N 40°35' W 074°01'0 0.0
2017-Mar-22 10:33N 40°35' W 074°01'0 0.0
2017-Mar-22 09:33N 40°35' W 074°01'0 0.0
2017-Mar-22 08:33N 40°35' W 074°01'0 0.2
2017-Mar-22 07:33N 40°36' W 074°01'0 0.0
2017-Mar-22 06:33N 40°36' W 074°01'0 0.2
2017-Mar-22 05:33N 40°35' W 074°01'0 0.1
2017-Mar-22 04:33N 40°35' W 074°01'0 0.0
2017-Mar-22 03:33N 40°35' W 074°01'0 0.0
2017-Mar-22 02:33N 40°35' W 074°01'0 0.0
2017-Mar-22 01:33N 40°35' W 074°01'0 0.0
2017-Mar-22 00:33N 40°35' W 074°01'0 0.0
2017-Mar-21 23:33N 40°35' W 074°01'0 0.0
2017-Mar-21 22:33N 40°35' W 074°01'0 0.0
2017-Mar-21 21:33N 40°35' W 074°01'0 0.1
2017-Mar-21 20:33N 40°36' W 074°01'0 0.1
2017-Mar-21 19:33N 40°36' W 074°01'0 0.1
2017-Mar-21 18:33N 40°36' W 074°01'0 0.0
2017-Mar-21 17:33N 40°35' W 074°01'0 0.1
2017-Mar-21 16:33N 40°35' W 074°01'0 0.0
2017-Mar-21 15:33N 40°35' W 074°01'0 0.0
2017-Mar-21 14:33N 40°35' W 074°01'0 0.0
2017-Mar-21 13:33N 40°35' W 074°01'0 0.0
2017-Mar-21 12:33N 40°35' W 074°01'0 0.0
2017-Mar-21 11:33N 40°35' W 074°01'0 0.0
2017-Mar-21 10:30N 40°35' W 074°01'0 0.0
2017-Mar-21 09:33N 40°35' W 074°01'0 0.1
2017-Mar-21 08:33N 40°35' W 074°01'0 0.1
2017-Mar-21 07:33N 40°36' W 074°01'0 0.0
2017-Mar-21 06:33N 40°36' W 074°01'0 0.1
2017-Mar-21 05:33N 40°35' W 074°01'0 0.1
2017-Mar-21 04:33N 40°35' W 074°01'0 0.0
2017-Mar-21 03:33N 40°35' W 074°01'0 0.0
2017-Mar-21 02:33N 40°35' W 074°01'0 0.0
2017-Mar-21 01:33N 40°35' W 074°01'0 0.0
2017-Mar-21 00:33N 40°35' W 074°01'0 0.0
2017-Mar-20 23:33N 40°35' W 074°01'0 0.0
2017-Mar-20 22:33N 40°35' W 074°01'0 0.0
2017-Mar-20 21:33N 40°35' W 074°01'0 0.0
2017-Mar-20 20:33N 40°35' W 074°01'0 0.0
2017-Mar-20 19:33N 40°35' W 074°01'0 0.0
2017-Mar-20 18:33N 40°35' W 074°01'0 0.0
2017-Mar-20 17:30N 40°35' W 074°01'0 0.0
2017-Mar-20 16:33N 40°35' W 074°01'0 0.0
2017-Mar-20 15:27N 40°35' W 074°01'0 0.0
2017-Mar-20 14:33N 40°35' W 074°01'0 0.0
2017-Mar-20 13:33N 40°35' W 074°01'1 0.6
2017-Mar-20 12:34N 40°36' W 074°02'5 4.4
2017-Mar-20 11:31N 40°40' W 074°02'0 0.0
2017-Mar-20 10:32N 40°40' W 074°02'0 0.0
2017-Mar-20 09:31N 40°40' W 074°02'0 0.1
2017-Mar-20 08:31N 40°40' W 074°02'0 0.1
2017-Mar-20 07:31N 40°40' W 074°02'0 0.1
2017-Mar-20 06:31N 40°40' W 074°02'0 0.0
2017-Mar-20 05:31N 40°40' W 074°02'0 0.1
2017-Mar-20 04:31N 40°40' W 074°02'0 0.1
2017-Mar-20 03:31N 40°40' W 074°02'0 0.1
2017-Mar-20 02:31N 40°40' W 074°02'0 0.0
2017-Mar-20 01:31N 40°40' W 074°02'0 0.0
2017-Mar-20 00:31N 40°40' W 074°02'0 0.0
2017-Mar-19 23:31N 40°40' W 074°02'0 0.0
2017-Mar-19 22:31N 40°40' W 074°02'0 0.0
2017-Mar-19 21:31N 40°40' W 074°02'0 0.1
2017-Mar-19 20:31N 40°40' W 074°02'0 0.0
2017-Mar-19 19:31N 40°40' W 074°02'0 0.2
2017-Mar-19 18:31N 40°40' W 074°02'0 0.1
2017-Mar-19 17:31N 40°40' W 074°02'0 0.0
2017-Mar-19 16:31N 40°40' W 074°02'0 0.1
2017-Mar-19 15:31N 40°40' W 074°02'0 0.0
2017-Mar-19 14:31N 40°40' W 074°02'0 0.0
2017-Mar-19 13:31N 40°40' W 074°02'0 0.0
2017-Mar-19 12:31N 40°40' W 074°02'0 0.0
2017-Mar-19 11:31N 40°40' W 074°02'0 0.0
2017-Mar-19 10:31N 40°40' W 074°02'0 0.0
2017-Mar-19 09:31N 40°40' W 074°02'0 0.0
2017-Mar-19 08:31N 40°40' W 074°02'0 0.0
2017-Mar-19 07:32N 40°40' W 074°02'0 0.2
2017-Mar-19 06:31N 40°40' W 074°02'0 0.0
2017-Mar-19 05:31N 40°40' W 074°02'0 0.1
2017-Mar-19 04:31N 40°40' W 074°02'0 0.1
2017-Mar-19 03:31N 40°40' W 074°02'0 0.1
2017-Mar-19 02:31N 40°40' W 074°02'0 0.0
2017-Mar-19 01:31N 40°40' W 074°02'0 0.0
2017-Mar-19 00:31N 40°40' W 074°02'0 0.0
2017-Mar-18 23:31N 40°40' W 074°02'0 0.0
2017-Mar-18 22:31N 40°40' W 074°02'0 0.0
2017-Mar-18 21:31N 40°40' W 074°02'0 0.0
2017-Mar-18 20:31N 40°40' W 074°02'0 0.0
2017-Mar-18 19:31N 40°40' W 074°02'0 0.1
2017-Mar-18 18:31N 40°40' W 074°02'0 0.2
2017-Mar-18 17:31N 40°40' W 074°02'0 0.0
2017-Mar-18 16:31N 40°40' W 074°02'0 0.1
2017-Mar-18 15:31N 40°40' W 074°02'0 0.1
2017-Mar-18 14:31N 40°40' W 074°02'0 0.1
2017-Mar-18 13:31N 40°40' W 074°02'0 0.1
2017-Mar-18 12:31N 40°40' W 074°02'0 0.0
2017-Mar-18 11:31N 40°40' W 074°02'0 0.0
2017-Mar-18 10:31N 40°40' W 074°02'0 0.0
2017-Mar-18 09:31N 40°40' W 074°02'0 0.0
2017-Mar-18 08:31N 40°40' W 074°02'0 0.2
2017-Mar-18 07:31N 40°40' W 074°02'0 0.1
2017-Mar-18 06:31N 40°40' W 074°02'0 0.0
2017-Mar-18 05:31N 40°40' W 074°02'0 0.0
2017-Mar-18 04:31N 40°40' W 074°02'0 0.0
2017-Mar-18 03:31N 40°40' W 074°02'0 0.0
2017-Mar-18 02:31N 40°40' W 074°02'0 0.1
2017-Mar-18 01:31N 40°40' W 074°02'0 0.2
2017-Mar-18 00:31N 40°40' W 074°02'0 0.0
2017-Mar-17 23:31N 40°40' W 074°02'0 0.0
2017-Mar-17 22:31N 40°40' W 074°02'0 0.0
2017-Mar-17 21:31N 40°40' W 074°02'0 0.0
2017-Mar-17 20:31N 40°40' W 074°02'0 0.1
2017-Mar-17 19:31N 40°40' W 074°02'0 0.2
2017-Mar-17 18:31N 40°40' W 074°02'0 0.0
2017-Mar-17 17:31N 40°40' W 074°02'0 0.1
2017-Mar-17 16:33N 40°40' W 074°02'0 0.0
2017-Mar-17 15:33N 40°40' W 074°02'4 4.0
2017-Mar-17 14:34N 40°39' W 074°07'1 0.9
2017-Mar-17 13:34N 40°38' W 074°08'0 0.0
2017-Mar-17 12:34N 40°38' W 074°08'5 4.6
2017-Mar-17 11:32N 40°40' W 074°02'0 0.0
2017-Mar-17 10:32N 40°40' W 074°02'0 0.0
2017-Mar-17 09:32N 40°40' W 074°02'0 0.0
2017-Mar-17 08:32N 40°40' W 074°02'0 0.0
2017-Mar-17 07:32N 40°40' W 074°02'0 0.1
2017-Mar-17 06:32N 40°40' W 074°02'0 0.1
2017-Mar-17 05:32N 40°40' W 074°02'0 0.1
2017-Mar-17 04:32N 40°40' W 074°02'0 0.0
2017-Mar-17 03:32N 40°40' W 074°02'0 0.0
2017-Mar-17 02:32N 40°40' W 074°02'0 0.1
2017-Mar-17 01:32N 40°40' W 074°02'0 0.1
2017-Mar-17 00:32N 40°40' W 074°02'0 0.0
2017-Mar-16 23:32N 40°40' W 074°02'0 0.0
2017-Mar-16 22:32N 40°40' W 074°02'0 0.0
2017-Mar-16 21:32N 40°40' W 074°02'0 0.0
2017-Mar-16 20:32N 40°40' W 074°02'0 0.0
2017-Mar-16 19:32N 40°40' W 074°02'0 0.0
2017-Mar-16 18:32N 40°40' W 074°02'0 0.1
2017-Mar-16 17:32N 40°40' W 074°02'0 0.0
2017-Mar-16 16:32N 40°40' W 074°02'0 0.1
2017-Mar-16 15:32N 40°40' W 074°02'0 0.0
2017-Mar-16 14:33N 40°40' W 074°02'0 0.0
2017-Mar-16 13:33N 40°40' W 074°02'0 0.2
2017-Mar-16 12:33N 40°40' W 074°02'4 4.3
2017-Mar-16 11:32N 40°36' W 074°01'0 0.0
2017-Mar-16 10:32N 40°36' W 074°01'0 0.0
2017-Mar-16 09:32N 40°36' W 074°01'0 0.0
2017-Mar-16 08:32N 40°36' W 074°01'0 0.0
2017-Mar-16 07:33N 40°36' W 074°01'0 0.0
2017-Mar-16 06:33N 40°36' W 074°01'0 0.0
2017-Mar-16 05:33N 40°36' W 074°01'0 0.0
2017-Mar-16 04:33N 40°36' W 074°01'0 0.0
2017-Mar-16 03:33N 40°36' W 074°01'0 0.0
2017-Mar-16 02:33N 40°36' W 074°01'0 0.0
2017-Mar-16 01:33N 40°36' W 074°01'0 0.0
2017-Mar-16 00:33N 40°36' W 074°01'0 0.1
2017-Mar-15 23:33N 40°36' W 074°01'0 0.0
2017-Mar-15 22:33N 40°36' W 074°01'0 0.0
2017-Mar-15 21:33N 40°36' W 074°01'0 0.0
2017-Mar-15 20:33N 40°36' W 074°01'0 0.0
2017-Mar-15 19:33N 40°36' W 074°01'6 5.6
2017-Mar-15 18:33N 40°41' W 074°01'1010.0
2017-Mar-15 17:33N 40°48' W 073°51'1010.1
2017-Mar-15 16:31N 40°55' W 073°40'3 0.1
2017-Mar-13 15:11N 40°53' W 073°43'6 9.9
2017-Mar-13 14:33N 40°48' W 073°49'9 9.1
2017-Mar-13 13:33N 40°43' W 073°58'1010.1
2017-Mar-13 12:33N 40°39' W 074°11'6 6.0
2017-Mar-13 11:32N 40°33' W 074°14'0 0.0
2017-Mar-13 10:32N 40°33' W 074°14'0 0.0
2017-Mar-13 06:26N 40°33' W 074°14'0 0.0
2017-Mar-13 05:32N 40°33' W 074°14'0 0.0
2017-Mar-13 04:32N 40°33' W 074°14'0 0.0
2017-Mar-13 03:32N 40°33' W 074°14'0 0.0
2017-Mar-13 02:26N 40°33' W 074°14'0 0.0
2017-Mar-13 01:32N 40°33' W 074°14'0 0.0
2017-Mar-13 00:26N 40°33' W 074°14'0 0.0
2017-Mar-12 23:32N 40°33' W 074°14'  

Dump ship's entire track history